^^
Saratoga-Weather Station Historical Data
Daily Summary for March 27, 2021 Units:  Metric    English   Both
Daily Weekly Monthly Yearly Custom
  High: Low: Average:
Temperature: 18.8 °C 11.1 °C 15.6 °C
Dew Point: 12.2 °C 9.8 °C 11.3 °C
Humidity: 92% 62% 76%
Wind Speed: 16.3km/h 0km/h 4.5km/h
Wind Gust: 22.5km/h - -
Wind- - West
Pressure: 1017.6 hPa 1014.9 hPa -
Precipitation: 0.0 mm    
Historical Graphs
 
 
Tabular Data for March 27, 2021
Time Temperature Dew Point Pressure Wind Wind Speed Wind Gust Humidity Rainfall Rate (Hourly) solar
00:02 14.7 °C 11.7 °C 1015.2 hPa Calm   1.6 km/h 82% 0.0 mm 0 W/m2
00:07 14.6 °C 11.7 °C 1015.2 hPa Calm   4.8 km/h 83% 0.0 mm 0 W/m2
00:12 14.4 °C 11.5 °C 1015.2 hPa West 3.2 km/h 4.8 km/h 83% 0.0 mm 0 W/m2
00:17 14.3 °C 11.6 °C 1015.2 hPa West 3.2 km/h 4.8 km/h 84% 0.0 mm 0 W/m2
00:22 14.2 °C 11.5 °C 1015.2 hPa West 1.4 km/h 4.8 km/h 84% 0.0 mm 0 W/m2
00:27 14.2 °C 11.7 °C 1015.2 hPa WNW 3.2 km/h 6.4 km/h 85% 0.0 mm 0 W/m2
00:32 14.1 °C 11.6 °C 1015.2 hPa West 3.2 km/h 6.4 km/h 85% 0.0 mm 0 W/m2
00:37 14 °C 11.5 °C 1015.2 hPa West 3.2 km/h 6.4 km/h 85% 0.0 mm 0 W/m2
00:42 13.9 °C 11.4 °C 1015.2 hPa West 1.4 km/h 4.8 km/h 85% 0.0 mm 0 W/m2
00:47 13.9 °C 11.6 °C 1015.2 hPa West 4.7 km/h 9.7 km/h 86% 0.0 mm 0 W/m2
00:52 13.9 °C 11.6 °C 1015.2 hPa WNW 3.2 km/h 6.4 km/h 86% 0.0 mm 0 W/m2
00:57 14 °C 11.7 °C 1015.2 hPa West 4.7 km/h 6.4 km/h 86% 0.0 mm 0 W/m2
01:02 14.1 °C 11.8 °C 1015.2 hPa WNW 3.2 km/h 9.7 km/h 86% 0.0 mm 0 W/m2
01:07 14.1 °C 11.8 °C 1015.2 hPa West 1.4 km/h 6.4 km/h 86% 0.0 mm 0 W/m2
01:12 14.2 °C 11.9 °C 1015.2 hPa West 3.2 km/h 9.7 km/h 86% 0.0 mm 0 W/m2
01:17 14.3 °C 11.8 °C 1015.2 hPa WNW 6.4 km/h 6.4 km/h 85% 0.0 mm 0 W/m2
01:22 14.3 °C 11.8 °C 1015.2 hPa West 3.2 km/h 6.4 km/h 85% 0.0 mm 0 W/m2
01:27 14.3 °C 11.8 °C 1015.2 hPa WNW 3.2 km/h 9.7 km/h 85% 0.0 mm 0 W/m2
01:32 14.3 °C 11.8 °C 1015.2 hPa WSW 4.7 km/h 8 km/h 85% 0.0 mm 0 W/m2
01:37 14.3 °C 11.8 °C 1015.2 hPa WSW 4.7 km/h 6.4 km/h 85% 0.0 mm 0 W/m2
01:42 14.3 °C 11.8 °C 1015.2 hPa West 3.2 km/h 6.4 km/h 85% 0.0 mm 0 W/m2
01:47 14.3 °C 11.8 °C 1015.2 hPa West 4.7 km/h 9.7 km/h 85% 0.0 mm 0 W/m2
01:52 14.3 °C 11.8 °C 1015.2 hPa WSW 4.7 km/h 6.4 km/h 85% 0.0 mm 0 W/m2
01:57 14.4 °C 11.9 °C 1015.2 hPa WSW 4.7 km/h 6.4 km/h 85% 0.0 mm 0 W/m2
02:02 14.4 °C 11.9 °C 1015.2 hPa West 3.2 km/h 6.4 km/h 85% 0.0 mm 0 W/m2
02:07 14.4 °C 11.9 °C 1015.2 hPa WSW 6.4 km/h 6.4 km/h 85% 0.0 mm 0 W/m2
02:12 14.4 °C 11.9 °C 1015.2 hPa NW 3.2 km/h 6.4 km/h 85% 0.0 mm 0 W/m2
02:17 14.4 °C 11.9 °C 1014.9 hPa WNW 1.4 km/h 9.7 km/h 85% 0.0 mm 0 W/m2
02:22 14.5 °C 12 °C 1014.9 hPa West 4.7 km/h 9.7 km/h 85% 0.0 mm 0 W/m2
02:27 14.5 °C 12 °C 1015.2 hPa WNW 6.4 km/h 9.7 km/h 85% 0.0 mm 0 W/m2
02:32 14.6 °C 12.1 °C 1015.2 hPa WNW 3.2 km/h 8 km/h 85% 0.0 mm 0 W/m2
02:37 14.6 °C 12.1 °C 1015.2 hPa NW 3.2 km/h 4.8 km/h 85% 0.0 mm 0 W/m2
02:42 14.5 °C 12.2 °C 1015.2 hPa WNW 3.2 km/h 6.4 km/h 86% 0.0 mm 0 W/m2
02:47 14.3 °C 12 °C 1014.9 hPa WSW 1.4 km/h 4.8 km/h 86% 0.0 mm 0 W/m2
02:52 14.2 °C 12.1 °C 1015.2 hPa Calm     87% 0.0 mm 0 W/m2
02:57 14.2 °C 12.1 °C 1015.2 hPa WNW 1.4 km/h 4.8 km/h 87% 0.0 mm 0 W/m2
03:02 14.1 °C 12 °C 1015.2 hPa Calm   3.2 km/h 87% 0.0 mm 0 W/m2
03:07 14.1 °C 12 °C 1015.2 hPa West 3.2 km/h 9.7 km/h 87% 0.0 mm 0 W/m2
03:12 14.2 °C 12.1 °C 1015.2 hPa West 6.4 km/h 6.4 km/h 87% 0.0 mm 0 W/m2
03:17 14.3 °C 12 °C 1015.2 hPa North 3.2 km/h 8 km/h 86% 0.0 mm 0 W/m2
03:22 14.4 °C 12.1 °C 1015.2 hPa North 1.4 km/h 3.2 km/h 86% 0.0 mm 0 W/m2
03:27 14.4 °C 12.1 °C 1014.9 hPa WSW 1.4 km/h 4.8 km/h 86% 0.0 mm 0 W/m2
03:32 14.4 °C 12.1 °C 1014.9 hPa West 6.4 km/h 6.4 km/h 86% 0.0 mm 0 W/m2
03:38 14.4 °C 11.9 °C 1014.9 hPa West 4.7 km/h 6.4 km/h 85% 0.0 mm 0 W/m2
03:43 14.4 °C 11.9 °C 1015.2 hPa NW 1.4 km/h 9.7 km/h 85% 0.0 mm 0 W/m2
03:48 14.4 °C 11.9 °C 1015.2 hPa North 1.4 km/h 9.7 km/h 85% 0.0 mm 0 W/m2
03:53 14.4 °C 11.7 °C 1015.2 hPa NNW 6.4 km/h 12.9 km/h 84% 0.0 mm 0 W/m2
03:58 14.4 °C 11.7 °C 1015.2 hPa West 9.7 km/h 11.3 km/h 84% 0.0 mm 0 W/m2
04:03 14.3 °C 11.6 °C 1015.2 hPa WNW 3.2 km/h 12.9 km/h 84% 0.0 mm 0 W/m2
04:08 14.2 °C 11.5 °C 1015.2 hPa NNW 1.4 km/h 8 km/h 84% 0.0 mm 0 W/m2
04:13 14.1 °C 11.4 °C 1015.2 hPa West 6.4 km/h 12.9 km/h 84% 0.0 mm 0 W/m2
04:18 14.1 °C 11.6 °C 1015.2 hPa WSW 1.4 km/h 4.8 km/h 85% 0.0 mm 0 W/m2
04:23 14 °C 11.5 °C 1015.2 hPa NNW 3.2 km/h 6.4 km/h 85% 0.0 mm 0 W/m2
04:28 13.9 °C 11.4 °C 1015.2 hPa WNW 1.4 km/h 6.4 km/h 85% 0.0 mm 0 W/m2
04:33 13.9 °C 11.4 °C 1015.2 hPa NE 3.2 km/h 9.7 km/h 85% 0.0 mm 0 W/m2
04:38 13.8 °C 11.3 °C 1015.2 hPa NNW 1.4 km/h 4.8 km/h 85% 0.0 mm 0 W/m2
04:43 13.7 °C 11.2 °C 1015.2 hPa WNW 1.4 km/h 4.8 km/h 85% 0.0 mm 0 W/m2
04:48 13.5 °C 11 °C 1015.2 hPa NW 1.4 km/h 3.2 km/h 85% 0.0 mm 0 W/m2
04:53 13.3 °C 11 °C 1015.2 hPa Calm   1.6 km/h 86% 0.0 mm 0 W/m2
04:58 13.2 °C 10.9 °C 1015.6 hPa Calm   1.6 km/h 86% 0.0 mm 0 W/m2
05:03 13.1 °C 10.8 °C 1015.6 hPa WNW 1.4 km/h 3.2 km/h 86% 0.0 mm 0 W/m2
05:08 12.9 °C 10.8 °C 1015.6 hPa WNW 1.4 km/h 3.2 km/h 87% 0.0 mm 0 W/m2
05:13 12.7 °C 10.6 °C 1015.6 hPa WNW 1.4 km/h 3.2 km/h 87% 0.0 mm 0 W/m2
05:18 12.8 °C 10.9 °C 1015.6 hPa WNW 1.4 km/h 4.8 km/h 88% 0.0 mm 0 W/m2
05:23 12.8 °C 10.7 °C 1015.6 hPa NNW 3.2 km/h 3.2 km/h 87% 0.0 mm 0 W/m2
05:28 12.8 °C 10.7 °C 1015.2 hPa NW 3.2 km/h 3.2 km/h 87% 0.0 mm 0 W/m2
05:33 12.8 °C 10.7 °C 1015.2 hPa NW 1.4 km/h 1.6 km/h 87% 0.0 mm 0 W/m2
05:38 12.7 °C 10.6 °C 1015.2 hPa Calm   1.6 km/h 87% 0.0 mm 0 W/m2
05:43 12.6 °C 10.5 °C 1015.2 hPa Calm   1.6 km/h 87% 0.0 mm 0 W/m2
05:48 12.3 °C 10.2 °C 1015.6 hPa Calm     87% 0.0 mm 0 W/m2
05:53 12.2 °C 10.1 °C 1015.2 hPa Calm   1.6 km/h 87% 0.0 mm 0 W/m2
05:58 12 °C 10.1 °C 1015.6 hPa Calm   1.6 km/h 88% 0.0 mm 0 W/m2
06:03 11.9 °C 10.1 °C 1015.6 hPa Calm     89% 0.0 mm 0 W/m2
06:08 11.8 °C 10 °C 1015.6 hPa Calm     89% 0.0 mm 0 W/m2
06:13 11.7 °C 9.9 °C 1015.6 hPa Calm     89% 0.0 mm 0 W/m2
06:18 11.7 °C 10.1 °C 1015.6 hPa Calm   1.6 km/h 90% 0.0 mm 0 W/m2
06:23 11.6 °C 10 °C 1015.6 hPa Calm   1.6 km/h 90% 0.0 mm 0 W/m2
06:28 11.7 °C 10.3 °C 1015.6 hPa North 3.2 km/h 3.2 km/h 91% 0.0 mm 0 W/m2
06:33 11.7 °C 10.3 °C 1015.6 hPa Calm     91% 0.0 mm 0 W/m2
06:38 11.7 °C 10.3 °C 1015.6 hPa Calm     91% 0.0 mm 0 W/m2
06:43 11.7 °C 10.1 °C 1015.6 hPa Calm     90% 0.0 mm 0 W/m2
06:48 11.6 °C 10 °C 1015.6 hPa Calm   3.2 km/h 90% 0.0 mm 5 W/m2
06:53 11.4 °C 9.8 °C 1015.9 hPa Calm     90% 0.0 mm 5 W/m2
06:58 11.4 °C 10 °C 1015.9 hPa Calm   3.2 km/h 91% 0.0 mm 9 W/m2
07:03 11.3 °C 9.9 °C 1015.9 hPa Calm     91% 0.0 mm 11 W/m2
07:08 11.2 °C 9.8 °C 1016.3 hPa Calm     91% 0.0 mm 12 W/m2
07:13 11.2 °C 9.8 °C 1016.3 hPa Calm     91% 0.0 mm 16 W/m2
07:18 11.2 °C 9.9 °C 1016.3 hPa WNW 1.4 km/h 1.6 km/h 92% 0.0 mm 18 W/m2
07:23 11.1 °C 9.8 °C 1016.3 hPa WNW 1.4 km/h 1.6 km/h 92% 0.0 mm 19 W/m2
07:28 11.1 °C 9.8 °C 1016.3 hPa Calm   1.6 km/h 92% 0.0 mm 18 W/m2
07:33 11.2 °C 9.9 °C 1016.3 hPa Calm     92% 0.0 mm 19 W/m2
07:38 11.2 °C 9.9 °C 1016.6 hPa Calm   1.6 km/h 92% 0.0 mm 30 W/m2
07:43 11.3 °C 10 °C 1016.6 hPa WSW 1.4 km/h 6.4 km/h 92% 0.0 mm 35 W/m2
07:48 11.5 °C 10.2 °C 1016.6 hPa Calm     92% 0.0 mm 32 W/m2
07:53 11.7 °C 10.4 °C 1016.6 hPa WSW 1.4 km/h 6.4 km/h 92% 0.0 mm 33 W/m2
07:58 11.8 °C 10.4 °C 1016.6 hPa WSW 1.4 km/h 3.2 km/h 91% 0.0 mm 33 W/m2
08:03 11.9 °C 10.5 °C 1016.6 hPa Calm   1.6 km/h 91% 0.0 mm 35 W/m2
08:08 11.9 °C 10.3 °C 1016.6 hPa Calm     90% 0.0 mm 35 W/m2
08:13 12.1 °C 10.5 °C 1016.6 hPa WSW 3.2 km/h 3.2 km/h 90% 0.0 mm 39 W/m2
08:18 12.2 °C 10.4 °C 1016.6 hPa West 4.7 km/h 4.8 km/h 89% 0.0 mm 42 W/m2
08:23 12.4 °C 10.5 °C 1016.6 hPa West 1.4 km/h 3.2 km/h 88% 0.0 mm 69 W/m2
08:28 12.7 °C 10.6 °C 1016.9 hPa West 1.4 km/h 4.8 km/h 87% 0.0 mm 146 W/m2
08:33 12.8 °C 10.5 °C 1016.9 hPa West 1.4 km/h 3.2 km/h 86% 0.0 mm 77 W/m2
08:38 13 °C 10.7 °C 1016.9 hPa Calm   4.8 km/h 86% 0.0 mm 93 W/m2
08:43 13.2 °C 10.9 °C 1016.9 hPa Calm   1.6 km/h 86% 0.0 mm 105 W/m2
08:48 13.3 °C 10.8 °C 1016.9 hPa Calm   3.2 km/h 85% 0.0 mm 132 W/m2
08:53 13.5 °C 10.8 °C 1016.9 hPa Calm     84% 0.0 mm 148 W/m2
08:58 13.7 °C 10.9 °C 1016.9 hPa Calm   4.8 km/h 83% 0.0 mm 165 W/m2
09:03 13.8 °C 11 °C 1016.9 hPa Calm   3.2 km/h 83% 0.0 mm 185 W/m2
09:08 13.9 °C 10.9 °C 1016.9 hPa West 4.7 km/h 12.9 km/h 82% 0.0 mm 199 W/m2
09:13 14.1 °C 11.1 °C 1016.9 hPa West 4.7 km/h 6.4 km/h 82% 0.0 mm 278 W/m2
09:18 14.3 °C 11.3 °C 1017.3 hPa NNW 1.4 km/h 12.9 km/h 82% 0.0 mm 250 W/m2
09:23 14.6 °C 11.4 °C 1017.3 hPa NW 6.4 km/h 14.5 km/h 81% 0.0 mm 237 W/m2
09:28 14.8 °C 11.4 °C 1017.3 hPa WNW 4.7 km/h 6.4 km/h 80% 0.0 mm 397 W/m2
09:33 14.8 °C 11.2 °C 1017.3 hPa NNW 3.2 km/h 9.7 km/h 79% 0.0 mm 206 W/m2
09:38 14.8 °C 11.2 °C 1017.3 hPa WNW 3.2 km/h 9.7 km/h 79% 0.0 mm 190 W/m2
09:43 14.7 °C 10.9 °C 1017.3 hPa NNW 1.4 km/h 16.1 km/h 78% 0.0 mm 148 W/m2
09:48 14.6 °C 10.8 °C 1017.3 hPa WNW 3.2 km/h 12.9 km/h 78% 0.0 mm 457 W/m2
09:53 14.9 °C 11.1 °C 1016.9 hPa WNW 3.2 km/h 6.4 km/h 78% 0.0 mm 265 W/m2
09:58 15.1 °C 11.1 °C 1016.9 hPa NW 3.2 km/h 9.7 km/h 77% 0.0 mm 188 W/m2
10:03 15.2 °C 10.8 °C 1016.9 hPa Calm   3.2 km/h 75% 0.0 mm 322 W/m2
10:08 15.4 °C 10.8 °C 1017.3 hPa Calm   3.2 km/h 74% 0.0 mm 464 W/m2
10:13 15.7 °C 10.9 °C 1017.3 hPa North 1.4 km/h 11.3 km/h 73% 0.0 mm 327 W/m2
10:18 15.8 °C 10.8 °C 1017.3 hPa WNW 6.4 km/h 8 km/h 72% 0.0 mm 376 W/m2
10:23 15.9 °C 11.3 °C 1017.3 hPa Calm   1.6 km/h 74% 0.0 mm 596 W/m2
10:28 16.1 °C 11.1 °C 1017.3 hPa NW 3.2 km/h 9.7 km/h 72% 0.0 mm 250 W/m2
10:33 16.1 °C 11.1 °C 1017.3 hPa WNW 3.2 km/h 11.3 km/h 72% 0.0 mm 227 W/m2
10:38 16.1 °C 11.1 °C 1017.3 hPa South 3.2 km/h 4.8 km/h 72% 0.0 mm 353 W/m2
10:43 16.3 °C 11.5 °C 1017.3 hPa NNW 3.2 km/h 4.8 km/h 73% 0.0 mm 628 W/m2
10:48 16.6 °C 11.7 °C 1017.3 hPa East 3.2 km/h 6.4 km/h 73% 0.0 mm 643 W/m2
10:53 16.8 °C 11.7 °C 1017.3 hPa NNW 6.4 km/h 19.3 km/h 72% 0.0 mm 680 W/m2
10:58 16.7 °C 11.6 °C 1017.3 hPa SW 3.2 km/h 11.3 km/h 72% 0.0 mm 178 W/m2
11:03 16.4 °C 11.1 °C 1017.6 hPa NNW 9.7 km/h 19.3 km/h 71% 0.0 mm 149 W/m2
11:08 16.2 °C 11.1 °C 1017.6 hPa North 3.2 km/h 11.3 km/h 72% 0.0 mm 327 W/m2
11:13 16.4 °C 11.3 °C 1017.3 hPa ENE 4.7 km/h 8 km/h 72% 0.0 mm 724 W/m2
11:18 16.8 °C 11.5 °C 1017.3 hPa ENE 6.4 km/h 20.9 km/h 71% 0.0 mm 752 W/m2
11:23 17.1 °C 11.4 °C 1017.6 hPa North 11.1 km/h 14.5 km/h 69% 0.0 mm 105 W/m2
11:28 16.8 °C 10.9 °C 1017.3 hPa WNW 3.2 km/h 19.3 km/h 68% 0.0 mm 123 W/m2
11:33 16.9 °C 11.2 °C 1017.6 hPa West 6.4 km/h 8 km/h 69% 0.0 mm 181 W/m2
11:38 17.1 °C 10.9 °C 1017.6 hPa West 4.7 km/h 14.5 km/h 67% 0.0 mm 773 W/m2
11:43 17.2 °C 11.2 °C 1017.3 hPa WNW 11.1 km/h 14.5 km/h 68% 0.0 mm 766 W/m2
11:48 17.3 °C 11.1 °C 1017.3 hPa WNW 6.4 km/h 16.1 km/h 67% 0.0 mm 761 W/m2
11:53 17.6 °C 10.9 °C 1017.3 hPa WNW 13 km/h 16.1 km/h 65% 0.0 mm 842 W/m2
11:58 17.7 °C 10.8 °C 1017.3 hPa West 9.7 km/h 12.9 km/h 64% 0.0 mm 835 W/m2
12:03 17.7 °C 11 °C 1017.3 hPa WNW 7.9 km/h 16.1 km/h 65% 0.0 mm 483 W/m2
12:08 17.9 °C 11.2 °C 1017.3 hPa NNE 4.7 km/h 9.7 km/h 65% 0.0 mm 508 W/m2
12:13 18.1 °C 11.2 °C 1017.3 hPa NE 4.7 km/h 6.4 km/h 64% 0.0 mm 432 W/m2
12:19 18.1 °C 11.2 °C 1017.3 hPa WNW 4.7 km/h 6.4 km/h 64% 0.0 mm 350 W/m2
12:24 18.1 °C 10.9 °C 1017.3 hPa NNE 1.4 km/h 6.4 km/h 63% 0.0 mm 422 W/m2
12:29 18.1 °C 11.2 °C 1016.9 hPa NE 4.7 km/h 8 km/h 64% 0.0 mm 399 W/m2
12:34 18.1 °C 11.4 °C 1016.9 hPa NW 3.2 km/h 6.4 km/h 65% 0.0 mm 185 W/m2
12:39 17.9 °C 11 °C 1016.9 hPa WNW 6.4 km/h 9.7 km/h 64% 0.0 mm 195 W/m2
12:44 17.7 °C 10.8 °C 1016.9 hPa NW 4.7 km/h 9.7 km/h 64% 0.0 mm 214 W/m2
12:49 17.7 °C 11.3 °C 1016.9 hPa North 1.4 km/h 3.2 km/h 66% 0.0 mm 229 W/m2
12:54 17.6 °C 10.5 °C 1016.9 hPa NNW 6.4 km/h 16.1 km/h 63% 0.0 mm 248 W/m2
12:59 17.3 °C 10.7 °C 1016.9 hPa NW 1.4 km/h 9.7 km/h 65% 0.0 mm 236 W/m2
13:04 17.3 °C 10.9 °C 1016.9 hPa WNW 6.4 km/h 16.1 km/h 66% 0.0 mm 232 W/m2
13:09 17.2 °C 10.8 °C 1017.3 hPa WNW 6.4 km/h 12.9 km/h 66% 0.0 mm 297 W/m2
13:14 17.3 °C 10.9 °C 1016.9 hPa WSW 11.1 km/h 12.9 km/h 66% 0.0 mm 366 W/m2
13:19 17.3 °C 10.9 °C 1017.3 hPa WNW 3.2 km/h 11.3 km/h 66% 0.0 mm 355 W/m2
13:24 17.6 °C 11.2 °C 1017.3 hPa SE 6.4 km/h 12.9 km/h 66% 0.0 mm 366 W/m2
13:29 17.8 °C 11.1 °C 1016.9 hPa WNW 1.4 km/h 8 km/h 65% 0.0 mm 387 W/m2
13:34 17.8 °C 11.1 °C 1016.9 hPa NNW 3.2 km/h 6.4 km/h 65% 0.0 mm 364 W/m2
13:39 17.9 °C 11.2 °C 1017.3 hPa NNW 9.7 km/h 9.7 km/h 65% 0.0 mm 160 W/m2
13:44 17.8 °C 11.1 °C 1017.3 hPa WNW 11.1 km/h 14.5 km/h 65% 0.0 mm 183 W/m2
13:49 17.7 °C 10.8 °C 1017.3 hPa West 13 km/h 12.9 km/h 64% 0.0 mm 234 W/m2
13:54 17.6 °C 10.7 °C 1017.3 hPa North 6.4 km/h 12.9 km/h 64% 0.0 mm 295 W/m2
13:59 17.6 °C 10.9 °C 1017.3 hPa NNE 3.2 km/h 9.7 km/h 65% 0.0 mm 390 W/m2
14:04 17.8 °C 11.1 °C 1017.3 hPa North 4.7 km/h 9.7 km/h 65% 0.0 mm 346 W/m2
14:09 17.9 °C 11.5 °C 1017.3 hPa NE 4.7 km/h 11.3 km/h 66% 0.0 mm 287 W/m2
14:14 18 °C 11.8 °C 1017.3 hPa NNW 9.7 km/h 16.1 km/h 67% 0.0 mm 269 W/m2
14:19 17.9 °C 11.5 °C 1017.3 hPa NNW 1.4 km/h 16.1 km/h 66% 0.0 mm 302 W/m2
14:24 17.7 °C 11.3 °C 1017.3 hPa West 13 km/h 12.9 km/h 66% 0.0 mm 301 W/m2
14:29 17.7 °C 11.3 °C 1017.3 hPa West 6.4 km/h 16.1 km/h 66% 0.0 mm 338 W/m2
14:34 17.6 °C 11.2 °C 1017.3 hPa WNW 3.2 km/h 14.5 km/h 66% 0.0 mm 323 W/m2
14:39 17.8 °C 11.6 °C 1017.3 hPa WSW 1.4 km/h 3.2 km/h 67% 0.0 mm 415 W/m2
14:44 18 °C 11.6 °C 1017.3 hPa WNW 3.2 km/h 4.8 km/h 66% 0.0 mm 371 W/m2
14:49 18.2 °C 11.5 °C 1017.3 hPa WNW 4.7 km/h 4.8 km/h 65% 0.0 mm 360 W/m2
14:54 18.2 °C 11.5 °C 1017.3 hPa NNW 4.7 km/h 6.4 km/h 65% 0.0 mm 323 W/m2
14:59 18.4 °C 11.7 °C 1017.3 hPa WSW 3.2 km/h 12.9 km/h 65% 0.0 mm 353 W/m2
15:04 18.3 °C 11.4 °C 1016.9 hPa West 11.1 km/h 11.3 km/h 64% 0.0 mm 299 W/m2
15:09 18.2 °C 11.5 °C 1016.9 hPa NW 4.7 km/h 9.7 km/h 65% 0.0 mm 323 W/m2
15:14 18.2 °C 11.5 °C 1016.9 hPa WNW 4.7 km/h 11.3 km/h 65% 0.0 mm 301 W/m2
15:19 18.2 °C 11.5 °C 1016.9 hPa West 6.4 km/h 11.3 km/h 65% 0.0 mm 246 W/m2
15:24 18.1 °C 11.4 °C 1016.9 hPa WNW 4.7 km/h 11.3 km/h 65% 0.0 mm 278 W/m2
15:29 18.3 °C 11.6 °C 1016.9 hPa NW 4.7 km/h 8 km/h 65% 0.0 mm 977 W/m2
15:34 18.4 °C 11.5 °C 1016.9 hPa NW 4.7 km/h 9.7 km/h 64% 0.0 mm 276 W/m2
15:39 18.3 °C 11.4 °C 1016.9 hPa NW 3.2 km/h 11.3 km/h 64% 0.0 mm 223 W/m2
15:44 18.2 °C 11.5 °C 1016.9 hPa NW 11.1 km/h 14.5 km/h 65% 0.0 mm 251 W/m2
15:49 18.3 °C 11.4 °C 1016.9 hPa WNW 4.7 km/h 16.1 km/h 64% 0.0 mm 301 W/m2
15:54 18.3 °C 11.4 °C 1016.9 hPa WNW 4.7 km/h 16.1 km/h 64% 0.0 mm 357 W/m2
15:59 18.6 °C 11.9 °C 1016.9 hPa NW 9.7 km/h 12.9 km/h 65% 0.0 mm 357 W/m2
16:04 18.8 °C 11.6 °C 1016.9 hPa NW 9.7 km/h 19.3 km/h 63% 0.0 mm 656 W/m2
16:09 18.7 °C 11.5 °C 1016.9 hPa West 9.7 km/h 17.7 km/h 63% 0.0 mm 355 W/m2
16:14 18.8 °C 11.8 °C 1016.6 hPa NW 6.4 km/h 11.3 km/h 64% 0.0 mm 197 W/m2
16:19 18.7 °C 11.8 °C 1016.6 hPa WSW 6.4 km/h 17.7 km/h 64% 0.0 mm 139 W/m2
16:24 18.6 °C 11.9 °C 1016.6 hPa WNW 3.2 km/h 6.4 km/h 65% 0.0 mm 144 W/m2
16:29 18.6 °C 11.9 °C 1016.6 hPa West 9.7 km/h 12.9 km/h 65% 0.0 mm 160 W/m2
16:34 18.4 °C 11.5 °C 1016.6 hPa WNW 13 km/h 19.3 km/h 64% 0.0 mm 142 W/m2
16:39 18.3 °C 11.8 °C 1016.6 hPa West 9.7 km/h 12.9 km/h 66% 0.0 mm 206 W/m2
16:44 18.3 °C 12.1 °C 1016.6 hPa WNW 7.9 km/h 17.7 km/h 67% 0.0 mm 299 W/m2
16:49 18.3 °C 11.6 °C 1016.6 hPa WSW 3.2 km/h 22.5 km/h 65% 0.0 mm 213 W/m2
16:54 18.3 °C 11.8 °C 1016.6 hPa West 6.4 km/h 11.3 km/h 66% 0.0 mm 260 W/m2
16:59 18.3 °C 11.6 °C 1016.6 hPa NNW 13 km/h 22.5 km/h 65% 0.0 mm 281 W/m2
17:04 18.6 °C 11.7 °C 1016.6 hPa WSW 13 km/h 16.1 km/h 64% 0.0 mm 283 W/m2
17:09 18.6 °C 11.2 °C 1016.6 hPa West 16.3 km/h 22.5 km/h 62% 0.0 mm 269 W/m2
17:14 18.8 °C 11.6 °C 1016.6 hPa NW 3.2 km/h 14.5 km/h 63% 0.0 mm 202 W/m2
17:19 18.8 °C 11.8 °C 1016.6 hPa NW 1.4 km/h 16.1 km/h 64% 0.0 mm 141 W/m2
17:24 18.8 °C 12.1 °C 1016.6 hPa SW 6.4 km/h 14.5 km/h 65% 0.0 mm 128 W/m2
17:29 18.6 °C 11.9 °C 1016.6 hPa West 6.4 km/h 14.5 km/h 65% 0.0 mm 162 W/m2
17:34 18.3 °C 11.4 °C 1016.9 hPa West 4.7 km/h 16.1 km/h 64% 0.0 mm 169 W/m2
17:39 18.2 °C 11.3 °C 1016.6 hPa NW 4.7 km/h 11.3 km/h 64% 0.0 mm 137 W/m2
17:44 18.1 °C 11.4 °C 1016.9 hPa WNW 1.4 km/h 12.9 km/h 65% 0.0 mm 134 W/m2
17:49 18.1 °C 11.2 °C 1016.6 hPa WSW 14.3 km/h 14.5 km/h 64% 0.0 mm 148 W/m2
17:54 18 °C 11.3 °C 1016.6 hPa West 3.2 km/h 12.9 km/h 65% 0.0 mm 137 W/m2
17:59 18 °C 11.3 °C 1016.6 hPa West 6.4 km/h 14.5 km/h 65% 0.0 mm 158 W/m2
18:04 18 °C 11.1 °C 1016.6 hPa WSW 7.9 km/h 17.7 km/h 64% 0.0 mm 116 W/m2
18:09 18 °C 11.3 °C 1016.6 hPa WNW 4.7 km/h 8 km/h 65% 0.0 mm 162 W/m2
18:14 18.2 °C 11.5 °C 1016.6 hPa WNW 6.4 km/h 17.7 km/h 65% 0.0 mm 162 W/m2
18:19 18.3 °C 11.6 °C 1016.6 hPa West 11.1 km/h 11.3 km/h 65% 0.0 mm 100 W/m2
18:24 18.3 °C 11.4 °C 1016.6 hPa WNW 3.2 km/h 12.9 km/h 64% 0.0 mm 309 W/m2
18:29 18.6 °C 11.7 °C 1016.6 hPa WNW 4.7 km/h 14.5 km/h 64% 0.0 mm 295 W/m2
18:34 18.7 °C 11.8 °C 1016.6 hPa NW 3.2 km/h 9.7 km/h 64% 0.0 mm 285 W/m2
18:39 18.7 °C 11.5 °C 1016.6 hPa West 6.4 km/h 17.7 km/h 63% 0.0 mm 269 W/m2
18:44 18.8 °C 11.8 °C 1016.6 hPa WNW 7.9 km/h 11.3 km/h 64% 0.0 mm 267 W/m2
18:49 18.7 °C 11.5 °C 1016.6 hPa WNW 13 km/h 12.9 km/h 63% 0.0 mm 90 W/m2
18:55 18.5 °C 11.6 °C 1016.6 hPa WNW 6.4 km/h 11.3 km/h 64% 0.0 mm 84 W/m2
19:00 18.3 °C 11.4 °C 1016.6 hPa WNW 11.1 km/h 20.9 km/h 64% 0.0 mm 76 W/m2
19:05 18.2 °C 11.5 °C 1016.6 hPa West 9.7 km/h 16.1 km/h 65% 0.0 mm 63 W/m2
19:10 18.1 °C 11.6 °C 1016.6 hPa West 4.7 km/h 6.4 km/h 66% 0.0 mm 51 W/m2
19:15 18.1 °C 11.6 °C 1016.6 hPa NW 4.7 km/h 11.3 km/h 66% 0.0 mm 35 W/m2
19:20 18.1 °C 11.9 °C 1016.6 hPa WNW 4.7 km/h 8 km/h 67% 0.0 mm 25 W/m2
19:30 17.9 °C 11.9 °C 1016.6 hPa West 4.7 km/h 6.4 km/h 68% 0.0 mm 16 W/m2
19:35 17.9 °C 11.9 °C 1016.6 hPa NW 3.2 km/h 16.1 km/h 68% 0.0 mm 18 W/m2
19:45 17.8 °C 11.8 °C 1016.9 hPa West 1.4 km/h 9.7 km/h 68% 0.0 mm 9 W/m2
19:50 17.8 °C 11.8 °C 1016.9 hPa WNW 6.4 km/h 17.7 km/h 68% 0.0 mm 9 W/m2
19:55 17.7 °C 11.7 °C 1016.9 hPa NNW 4.7 km/h 12.9 km/h 68% 0.0 mm 11 W/m2
20:00 17.7 °C 11.9 °C 1016.9 hPa SW 9.7 km/h 11.3 km/h 69% 0.0 mm 11 W/m2
20:05 17.6 °C 11.8 °C 1016.9 hPa West 14.3 km/h 14.5 km/h 69% 0.0 mm 11 W/m2
20:10 17.5 °C 11.7 °C 1017.3 hPa West 16.3 km/h 16.1 km/h 69% 0.0 mm 7 W/m2
20:15 17.4 °C 11.7 °C 1017.3 hPa NW 9.7 km/h 9.7 km/h 69% 0.0 mm 5 W/m2
20:20 17.3 °C 11.8 °C 1017.3 hPa WNW 16.1 km/h 16.1 km/h 70% 0.0 mm 0 W/m2
20:25 17.2 °C 11.7 °C 1016.9 hPa West 9.7 km/h 9.7 km/h 70% 0.0 mm 0 W/m2
20:30 17.2 °C 11.7 °C 1017.3 hPa West 13 km/h 14.5 km/h 70% 0.0 mm 0 W/m2
20:35 17.1 °C 11.8 °C 1017.3 hPa North 9.7 km/h 11.3 km/h 71% 0.0 mm 0 W/m2
20:40 17 °C 11.7 °C 1017.3 hPa West 6.4 km/h 12.9 km/h 71% 0.0 mm 0 W/m2
20:45 17 °C 11.9 °C 1017.3 hPa West 11.1 km/h 11.3 km/h 72% 0.0 mm 0 W/m2
20:50 16.9 °C 11.8 °C 1017.3 hPa NW 1.4 km/h 6.4 km/h 72% 0.0 mm 0 W/m2
20:55 16.8 °C 11.9 °C 1017.3 hPa North 4.7 km/h 4.8 km/h 73% 0.0 mm 0 W/m2
21:00 16.7 °C 11.8 °C 1017.3 hPa WNW 1.4 km/h 6.4 km/h 73% 0.0 mm 0 W/m2
21:05 16.7 °C 11.6 °C 1017.3 hPa West 6.4 km/h 11.3 km/h 72% 0.0 mm 0 W/m2
21:10 16.7 °C 11.8 °C 1017.3 hPa WNW 4.7 km/h 8 km/h 73% 0.0 mm 0 W/m2
21:15 16.5 °C 11.6 °C 1017.3 hPa NW 14.5 km/h 14.5 km/h 73% 0.0 mm 0 W/m2
21:20 16.4 °C 11.8 °C 1017.6 hPa WNW 6.4 km/h 9.7 km/h 74% 0.0 mm 0 W/m2
21:25 16.3 °C 11.7 °C 1017.6 hPa NW 3.2 km/h 12.9 km/h 74% 0.0 mm 0 W/m2
21:30 16.2 °C 11.8 °C 1017.6 hPa West 6.4 km/h 9.7 km/h 75% 0.0 mm 0 W/m2
21:35 16.1 °C 11.7 °C 1017.6 hPa WNW 4.7 km/h 9.7 km/h 75% 0.0 mm 0 W/m2
21:40 15.9 °C 11.7 °C 1017.6 hPa NW 7.9 km/h 11.3 km/h 76% 0.0 mm 0 W/m2
21:45 15.8 °C 11.8 °C 1017.6 hPa West 11.1 km/h 12.9 km/h 77% 0.0 mm 0 W/m2
21:50 15.7 °C 11.7 °C 1017.6 hPa WNW 4.7 km/h 16.1 km/h 77% 0.0 mm 0 W/m2
21:55 15.6 °C 11.8 °C 1017.6 hPa West 4.7 km/h 14.5 km/h 78% 0.0 mm 0 W/m2
22:00 15.5 °C 11.7 °C 1017.3 hPa West 3.2 km/h 9.7 km/h 78% 0.0 mm 0 W/m2
22:05 15.4 °C 11.6 °C 1017.6 hPa WNW 3.2 km/h 8 km/h 78% 0.0 mm 0 W/m2
22:10 15.4 °C 11.6 °C 1017.6 hPa Calm   4.8 km/h 78% 0.0 mm 0 W/m2
22:15 15.4 °C 11.8 °C 1017.6 hPa West 6.4 km/h 6.4 km/h 79% 0.0 mm 0 W/m2
22:20 15.3 °C 11.7 °C 1017.6 hPa WNW 3.2 km/h 11.3 km/h 79% 0.0 mm 0 W/m2
22:25 15.3 °C 11.7 °C 1017.6 hPa WSW 4.7 km/h 6.4 km/h 79% 0.0 mm 0 W/m2
22:30 15.3 °C 11.7 °C 1017.6 hPa WSW 3.2 km/h 4.8 km/h 79% 0.0 mm 0 W/m2
22:35 15.3 °C 11.9 °C 1017.6 hPa WNW 4.7 km/h 4.8 km/h 80% 0.0 mm 0 W/m2
22:40 15.2 °C 11.8 °C 1017.6 hPa WSW 3.2 km/h 9.7 km/h 80% 0.0 mm 0 W/m2
22:45 15.2 °C 11.8 °C 1017.6 hPa West 3.2 km/h 4.8 km/h 80% 0.0 mm 0 W/m2
22:50 15.1 °C 11.7 °C 1017.6 hPa West 1.4 km/h 4.8 km/h 80% 0.0 mm 0 W/m2
22:55 15.1 °C 11.9 °C 1017.6 hPa SW 9.7 km/h 12.9 km/h 81% 0.0 mm 0 W/m2
23:00 15.2 °C 12 °C 1017.6 hPa WNW 1.4 km/h 4.8 km/h 81% 0.0 mm 0 W/m2
23:05 15.2 °C 11.8 °C 1017.6 hPa WNW 3.2 km/h 12.9 km/h 80% 0.0 mm 0 W/m2
23:10 15.3 °C 11.9 °C 1017.6 hPa NW 3.2 km/h 4.8 km/h 80% 0.0 mm 0 W/m2
23:15 15.3 °C 11.9 °C 1017.6 hPa WSW 4.7 km/h 6.4 km/h 80% 0.0 mm 0 W/m2
23:20 15.3 °C 11.9 °C 1017.6 hPa WSW 9.7 km/h 9.7 km/h 80% 0.0 mm 0 W/m2
23:25 15.3 °C 11.9 °C 1017.6 hPa WSW 4.7 km/h 9.7 km/h 80% 0.0 mm 0 W/m2
23:30 15.3 °C 11.9 °C 1017.6 hPa WSW 4.7 km/h 12.9 km/h 80% 0.0 mm 0 W/m2
23:35 15.3 °C 11.9 °C 1017.6 hPa West 4.7 km/h 11.3 km/h 80% 0.0 mm 0 W/m2
23:40 15.3 °C 11.9 °C 1017.6 hPa WSW 11.1 km/h 11.3 km/h 80% 0.0 mm 0 W/m2
23:50 15.2 °C 12 °C 1017.6 hPa WNW 6.4 km/h 9.7 km/h 81% 0.0 mm 0 W/m2
23:55 15.1 °C 11.9 °C 1017.6 hPa NW 4.7 km/h 6.4 km/h 81% 0.0 mm 0 W/m2
Juneau County Weather
Compliments of Weather Underground - 4 mb